sensor_id;sensor_type;location;lat;lon;timestamp;P1;durP1;ratioP1;P2;durP2;ratioP2
7247;SDS011;3665;51.034;13.642;2024-01-16T00:03:04;3.53;;;2.40;;
7247;SDS011;3665;51.034;13.642;2024-01-16T00:08:19;2.40;;;2.20;;
7247;SDS011;3665;51.034;13.642;2024-01-16T00:13:42;2.80;;;1.90;;
7247;SDS011;3665;51.034;13.642;2024-01-16T00:19:13;3.37;;;2.20;;
7247;SDS011;3665;51.034;13.642;2024-01-16T00:24:30;3.33;;;3.03;;
7247;SDS011;3665;51.034;13.642;2024-01-16T00:29:36;2.57;;;2.37;;
7247;SDS011;3665;51.034;13.642;2024-01-16T00:34:39;4.63;;;2.37;;
7247;SDS011;3665;51.034;13.642;2024-01-16T00:39:58;3.60;;;2.80;;
7247;SDS011;3665;51.034;13.642;2024-01-16T00:45:02;4.63;;;2.87;;
7247;SDS011;3665;51.034;13.642;2024-01-16T00:50:41;3.63;;;2.73;;
7247;SDS011;3665;51.034;13.642;2024-01-16T01:08:52;8.63;;;2.63;;
7247;SDS011;3665;51.034;13.642;2024-01-16T01:19:31;4.50;;;2.67;;
7247;SDS011;3665;51.034;13.642;2024-01-16T01:25:01;4.30;;;3.23;;
7247;SDS011;3665;51.034;13.642;2024-01-16T01:30:06;3.63;;;2.90;;
7247;SDS011;3665;51.034;13.642;2024-01-16T01:35:10;3.50;;;2.87;;
7247;SDS011;3665;51.034;13.642;2024-01-16T01:40:18;4.93;;;2.83;;
7247;SDS011;3665;51.034;13.642;2024-01-16T01:45:37;4.30;;;2.60;;
7247;SDS011;3665;51.034;13.642;2024-01-16T01:50:58;3.67;;;2.70;;
7247;SDS011;3665;51.034;13.642;2024-01-16T01:56:21;4.60;;;2.47;;
7247;SDS011;3665;51.034;13.642;2024-01-16T02:01:52;4.20;;;2.50;;
7247;SDS011;3665;51.034;13.642;2024-01-16T02:13:21;3.30;;;2.37;;
7247;SDS011;3665;51.034;13.642;2024-01-16T02:18:12;4.10;;;2.90;;
7247;SDS011;3665;51.034;13.642;2024-01-16T02:29:51;4.67;;;2.70;;
7247;SDS011;3665;51.034;13.642;2024-01-16T02:35:15;4.00;;;3.70;;
7247;SDS011;3665;51.034;13.642;2024-01-16T02:46:09;6.23;;;2.83;;
7247;SDS011;3665;51.034;13.642;2024-01-16T02:51:59;2.50;;;2.23;;
7247;SDS011;3665;51.034;13.642;2024-01-16T02:57:07;5.10;;;2.70;;
7247;SDS011;3665;51.034;13.642;2024-01-16T03:02:24;6.13;;;2.77;;
7247;SDS011;3665;51.034;13.642;2024-01-16T03:07:43;2.50;;;2.30;;
7247;SDS011;3665;51.034;13.642;2024-01-16T03:12:48;2.50;;;2.30;;
7247;SDS011;3665;51.034;13.642;2024-01-16T03:17:53;2.50;;;2.07;;
7247;SDS011;3665;51.034;13.642;2024-01-16T03:23:26;3.60;;;2.50;;
7247;SDS011;3665;51.034;13.642;2024-01-16T03:28:48;3.93;;;2.30;;
7247;SDS011;3665;51.034;13.642;2024-01-16T03:34:13;2.60;;;2.40;;
7247;SDS011;3665;51.034;13.642;2024-01-16T03:45:21;4.43;;;2.40;;
7247;SDS011;3665;51.034;13.642;2024-01-16T03:50:40;3.87;;;2.30;;
7247;SDS011;3665;51.034;13.642;2024-01-16T03:55:45;5.83;;;2.30;;
7247;SDS011;3665;51.034;13.642;2024-01-16T04:01:37;3.10;;;2.40;;
7247;SDS011;3665;51.034;13.642;2024-01-16T04:13:04;3.37;;;2.23;;
7247;SDS011;3665;51.034;13.642;2024-01-16T04:19:01;2.60;;;2.40;;
7247;SDS011;3665;51.034;13.642;2024-01-16T04:24:37;3.40;;;3.20;;
7247;SDS011;3665;51.034;13.642;2024-01-16T04:30:36;2.90;;;2.50;;
7247;SDS011;3665;51.034;13.642;2024-01-16T04:47:17;5.40;;;3.50;;
7247;SDS011;3665;51.034;13.642;2024-01-16T04:53:19;4.37;;;3.73;;
7247;SDS011;3665;51.034;13.642;2024-01-16T04:59:26;3.20;;;3.00;;
7247;SDS011;3665;51.034;13.642;2024-01-16T05:04:46;3.60;;;3.03;;
7247;SDS011;3665;51.034;13.642;2024-01-16T05:10:30;3.77;;;3.03;;
7247;SDS011;3665;51.034;13.642;2024-01-16T05:22:24;2.90;;;2.20;;
7247;SDS011;3665;51.034;13.642;2024-01-16T05:27:27;2.50;;;2.20;;
7247;SDS011;3665;51.034;13.642;2024-01-16T05:32:35;2.63;;;2.30;;
7247;SDS011;3665;51.034;13.642;2024-01-16T05:43:09;2.87;;;2.33;;
7247;SDS011;3665;51.034;13.642;2024-01-16T05:48:15;3.20;;;2.10;;
7247;SDS011;3665;51.034;13.642;2024-01-16T05:59:11;3.90;;;2.37;;
7247;SDS011;3665;51.034;13.642;2024-01-16T06:17:05;5.97;;;3.27;;
7247;SDS011;3665;51.034;13.642;2024-01-16T06:22:43;6.00;;;3.20;;
7247;SDS011;3665;51.034;13.642;2024-01-16T06:28:21;6.20;;;3.13;;
7247;SDS011;3665;51.034;13.642;2024-01-16T06:45:02;5.93;;;2.70;;
7247;SDS011;3665;51.034;13.642;2024-01-16T06:50:37;4.20;;;3.00;;
7247;SDS011;3665;51.034;13.642;2024-01-16T06:56:02;3.17;;;2.87;;
7247;SDS011;3665;51.034;13.642;2024-01-16T07:13:43;4.90;;;3.10;;
7247;SDS011;3665;51.034;13.642;2024-01-16T07:19:32;4.30;;;2.80;;
7247;SDS011;3665;51.034;13.642;2024-01-16T07:31:46;3.10;;;2.17;;
7247;SDS011;3665;51.034;13.642;2024-01-16T07:49:11;3.70;;;1.83;;
7247;SDS011;3665;51.034;13.642;2024-01-16T07:54:46;3.63;;;1.80;;
7247;SDS011;3665;51.034;13.642;2024-01-16T08:12:13;3.43;;;1.80;;
7247;SDS011;3665;51.034;13.642;2024-01-16T08:17:33;6.00;;;2.23;;
7247;SDS011;3665;51.034;13.642;2024-01-16T08:23:17;1.83;;;1.60;;
7247;SDS011;3665;51.034;13.642;2024-01-16T08:29:33;3.00;;;2.30;;
7247;SDS011;3665;51.034;13.642;2024-01-16T08:34:12;3.93;;;2.73;;
7247;SDS011;3665;51.034;13.642;2024-01-16T08:45:21;2.97;;;2.33;;
7247;SDS011;3665;51.034;13.642;2024-01-16T08:50:42;5.20;;;2.27;;
7247;SDS011;3665;51.034;13.642;2024-01-16T09:01:34;4.40;;;2.33;;
7247;SDS011;3665;51.034;13.642;2024-01-16T09:06:29;6.73;;;2.87;;
7247;SDS011;3665;51.034;13.642;2024-01-16T09:17:07;7.10;;;2.60;;
7247;SDS011;3665;51.034;13.642;2024-01-16T09:23:04;3.93;;;2.53;;
7247;SDS011;3665;51.034;13.642;2024-01-16T09:28:22;3.50;;;2.20;;
7247;SDS011;3665;51.034;13.642;2024-01-16T09:34:15;4.17;;;2.60;;
7247;SDS011;3665;51.034;13.642;2024-01-16T09:40:03;3.57;;;2.10;;
7247;SDS011;3665;51.034;13.642;2024-01-16T09:46:45;5.87;;;2.23;;
7247;SDS011;3665;51.034;13.642;2024-01-16T09:52:07;2.97;;;2.67;;
7247;SDS011;3665;51.034;13.642;2024-01-16T10:02:55;4.13;;;2.70;;
7247;SDS011;3665;51.034;13.642;2024-01-16T10:08:06;5.10;;;2.70;;
7247;SDS011;3665;51.034;13.642;2024-01-16T10:13:36;5.10;;;2.30;;
7247;SDS011;3665;51.034;13.642;2024-01-16T10:18:40;4.37;;;2.40;;
7247;SDS011;3665;51.034;13.642;2024-01-16T10:24:15;3.80;;;2.83;;
7247;SDS011;3665;51.034;13.642;2024-01-16T10:29:39;5.33;;;2.80;;
7247;SDS011;3665;51.034;13.642;2024-01-16T10:35:24;4.77;;;2.77;;
7247;SDS011;3665;51.034;13.642;2024-01-16T10:46:22;3.60;;;2.47;;
7247;SDS011;3665;51.034;13.642;2024-01-16T10:52:01;5.17;;;2.43;;
7247;SDS011;3665;51.034;13.642;2024-01-16T10:57:37;3.27;;;2.57;;
7247;SDS011;3665;51.034;13.642;2024-01-16T11:03:11;3.83;;;2.60;;
7247;SDS011;3665;51.034;13.642;2024-01-16T11:22:08;4.87;;;2.50;;
7247;SDS011;3665;51.034;13.642;2024-01-16T12:09:48;4.03;;;2.10;;
7247;SDS011;3665;51.034;13.642;2024-01-16T12:31:28;6.13;;;3.90;;
7247;SDS011;3665;51.034;13.642;2024-01-16T12:36:17;4.23;;;2.20;;
7247;SDS011;3665;51.034;13.642;2024-01-16T12:41:10;2.93;;;2.57;;
7247;SDS011;3665;51.034;13.642;2024-01-16T12:46:40;3.00;;;2.20;;
7247;SDS011;3665;51.034;13.642;2024-01-16T12:57:19;4.03;;;2.00;;
7247;SDS011;3665;51.034;13.642;2024-01-16T13:02:12;4.37;;;2.60;;
7247;SDS011;3665;51.034;13.642;2024-01-16T13:23:12;6.07;;;2.43;;
7247;SDS011;3665;51.034;13.642;2024-01-16T13:27:58;5.27;;;2.87;;
7247;SDS011;3665;51.034;13.642;2024-01-16T13:32:48;2.97;;;2.40;;
7247;SDS011;3665;51.034;13.642;2024-01-16T13:37:33;3.00;;;2.50;;
7247;SDS011;3665;51.034;13.642;2024-01-16T13:42:23;4.20;;;2.47;;
7247;SDS011;3665;51.034;13.642;2024-01-16T13:47:09;5.77;;;2.67;;
7247;SDS011;3665;51.034;13.642;2024-01-16T13:51:58;3.13;;;2.57;;
7247;SDS011;3665;51.034;13.642;2024-01-16T13:56:47;4.57;;;2.23;;
7247;SDS011;3665;51.034;13.642;2024-01-16T14:01:49;4.50;;;2.27;;
7247;SDS011;3665;51.034;13.642;2024-01-16T14:06:38;4.33;;;2.17;;
7247;SDS011;3665;51.034;13.642;2024-01-16T14:11:41;3.00;;;2.10;;
7247;SDS011;3665;51.034;13.642;2024-01-16T14:16:29;6.37;;;2.33;;
7247;SDS011;3665;51.034;13.642;2024-01-16T14:21:35;3.33;;;2.27;;
7247;SDS011;3665;51.034;13.642;2024-01-16T14:26:43;5.20;;;2.90;;
7247;SDS011;3665;51.034;13.642;2024-01-16T14:31:43;4.10;;;2.13;;
7247;SDS011;3665;51.034;13.642;2024-01-16T14:36:31;4.07;;;3.03;;
7247;SDS011;3665;51.034;13.642;2024-01-16T14:41:19;3.30;;;2.30;;
7247;SDS011;3665;51.034;13.642;2024-01-16T14:46:05;3.17;;;1.77;;
7247;SDS011;3665;51.034;13.642;2024-01-16T14:50:52;3.93;;;2.40;;
7247;SDS011;3665;51.034;13.642;2024-01-16T14:55:42;4.73;;;2.50;;
7247;SDS011;3665;51.034;13.642;2024-01-16T15:00:33;3.60;;;2.57;;
7247;SDS011;3665;51.034;13.642;2024-01-16T15:05:17;3.93;;;3.37;;
7247;SDS011;3665;51.034;13.642;2024-01-16T15:10:05;3.13;;;1.97;;
7247;SDS011;3665;51.034;13.642;2024-01-16T15:14:53;4.53;;;3.13;;
7247;SDS011;3665;51.034;13.642;2024-01-16T15:19:41;8.33;;;5.57;;
7247;SDS011;3665;51.034;13.642;2024-01-16T15:24:30;9.37;;;5.93;;
7247;SDS011;3665;51.034;13.642;2024-01-16T15:29:20;15.33;;;8.47;;
7247;SDS011;3665;51.034;13.642;2024-01-16T15:34:07;5.23;;;3.57;;
7247;SDS011;3665;51.034;13.642;2024-01-16T15:38:55;6.60;;;4.30;;
7247;SDS011;3665;51.034;13.642;2024-01-16T15:43:43;5.97;;;4.63;;
7247;SDS011;3665;51.034;13.642;2024-01-16T15:48:29;7.50;;;4.83;;
7247;SDS011;3665;51.034;13.642;2024-01-16T15:53:18;6.60;;;5.87;;
7247;SDS011;3665;51.034;13.642;2024-01-16T15:58:15;6.70;;;4.27;;
7247;SDS011;3665;51.034;13.642;2024-01-16T16:03:09;5.13;;;3.67;;
7247;SDS011;3665;51.034;13.642;2024-01-16T16:08:00;6.67;;;3.40;;
7247;SDS011;3665;51.034;13.642;2024-01-16T16:13:10;6.47;;;3.90;;
7247;SDS011;3665;51.034;13.642;2024-01-16T16:18:06;5.53;;;4.13;;
7247;SDS011;3665;51.034;13.642;2024-01-16T16:22:56;5.47;;;4.33;;
7247;SDS011;3665;51.034;13.642;2024-01-16T16:27:40;6.87;;;4.53;;
7247;SDS011;3665;51.034;13.642;2024-01-16T16:32:30;7.30;;;4.70;;
7247;SDS011;3665;51.034;13.642;2024-01-16T16:37:18;6.53;;;3.90;;
7247;SDS011;3665;51.034;13.642;2024-01-16T16:42:08;4.90;;;3.70;;
7247;SDS011;3665;51.034;13.642;2024-01-16T16:46:55;5.70;;;4.70;;
7247;SDS011;3665;51.034;13.642;2024-01-16T16:51:41;6.50;;;3.83;;
7247;SDS011;3665;51.034;13.642;2024-01-16T16:56:25;6.97;;;3.87;;
7247;SDS011;3665;51.034;13.642;2024-01-16T17:01:18;6.07;;;4.20;;
7247;SDS011;3665;51.034;13.642;2024-01-16T17:06:02;6.07;;;4.47;;
7247;SDS011;3665;51.034;13.642;2024-01-16T17:10:54;6.10;;;4.40;;
7247;SDS011;3665;51.034;13.642;2024-01-16T17:15:41;5.63;;;4.23;;
7247;SDS011;3665;51.034;13.642;2024-01-16T17:20:30;7.43;;;4.50;;
7247;SDS011;3665;51.034;13.642;2024-01-16T17:25:20;7.93;;;4.67;;
7247;SDS011;3665;51.034;13.642;2024-01-16T17:30:06;8.57;;;5.20;;
7247;SDS011;3665;51.034;13.642;2024-01-16T17:34:54;7.60;;;4.53;;
7247;SDS011;3665;51.034;13.642;2024-01-16T17:39:39;6.73;;;4.77;;
7247;SDS011;3665;51.034;13.642;2024-01-16T17:44:31;7.27;;;4.80;;
7247;SDS011;3665;51.034;13.642;2024-01-16T17:49:21;8.40;;;5.17;;
7247;SDS011;3665;51.034;13.642;2024-01-16T17:54:05;6.80;;;4.03;;
7247;SDS011;3665;51.034;13.642;2024-01-16T17:58:58;7.10;;;4.10;;
7247;SDS011;3665;51.034;13.642;2024-01-16T18:03:41;8.10;;;4.10;;
7247;SDS011;3665;51.034;13.642;2024-01-16T18:08:31;7.60;;;4.77;;
7247;SDS011;3665;51.034;13.642;2024-01-16T18:13:17;4.53;;;3.77;;
7247;SDS011;3665;51.034;13.642;2024-01-16T18:18:03;5.93;;;4.20;;
7247;SDS011;3665;51.034;13.642;2024-01-16T18:22:51;6.43;;;4.13;;
7247;SDS011;3665;51.034;13.642;2024-01-16T18:27:40;5.17;;;3.73;;
7247;SDS011;3665;51.034;13.642;2024-01-16T18:32:31;6.03;;;4.53;;
7247;SDS011;3665;51.034;13.642;2024-01-16T18:37:17;6.97;;;4.73;;
7247;SDS011;3665;51.034;13.642;2024-01-16T18:42:01;8.83;;;4.50;;
7247;SDS011;3665;51.034;13.642;2024-01-16T18:46:53;5.93;;;3.90;;
7247;SDS011;3665;51.034;13.642;2024-01-16T18:51:43;6.67;;;4.47;;
7247;SDS011;3665;51.034;13.642;2024-01-16T18:56:29;6.97;;;5.50;;
7247;SDS011;3665;51.034;13.642;2024-01-16T19:01:13;6.67;;;5.27;;
7247;SDS011;3665;51.034;13.642;2024-01-16T19:06:05;7.70;;;5.13;;
7247;SDS011;3665;51.034;13.642;2024-01-16T19:10:55;7.90;;;5.50;;
7247;SDS011;3665;51.034;13.642;2024-01-16T19:29:35;8.20;;;6.27;;
7247;SDS011;3665;51.034;13.642;2024-01-16T19:41:06;9.13;;;7.00;;
7247;SDS011;3665;51.034;13.642;2024-01-16T19:52:47;7.93;;;5.33;;
7247;SDS011;3665;51.034;13.642;2024-01-16T19:57:51;9.63;;;6.40;;
7247;SDS011;3665;51.034;13.642;2024-01-16T20:03:10;7.80;;;5.40;;
7247;SDS011;3665;51.034;13.642;2024-01-16T20:20:18;5.77;;;4.07;;
7247;SDS011;3665;51.034;13.642;2024-01-16T20:26:09;7.67;;;4.70;;
7247;SDS011;3665;51.034;13.642;2024-01-16T20:32:17;7.13;;;5.00;;
7247;SDS011;3665;51.034;13.642;2024-01-16T20:55:43;6.83;;;4.23;;
7247;SDS011;3665;51.034;13.642;2024-01-16T21:07:13;7.27;;;5.43;;
7247;SDS011;3665;51.034;13.642;2024-01-16T21:18:46;4.13;;;3.67;;
7247;SDS011;3665;51.034;13.642;2024-01-16T21:30:53;4.07;;;3.67;;
7247;SDS011;3665;51.034;13.642;2024-01-16T21:36:18;3.20;;;2.90;;
7247;SDS011;3665;51.034;13.642;2024-01-16T21:48:06;4.20;;;3.20;;
7247;SDS011;3665;51.034;13.642;2024-01-16T21:54:23;4.37;;;3.27;;
7247;SDS011;3665;51.034;13.642;2024-01-16T22:01:05;5.43;;;4.23;;
7247;SDS011;3665;51.034;13.642;2024-01-16T22:17:18;6.37;;;4.10;;
7247;SDS011;3665;51.034;13.642;2024-01-16T22:22:55;4.30;;;3.73;;
7247;SDS011;3665;51.034;13.642;2024-01-16T22:33:53;3.63;;;3.33;;
7247;SDS011;3665;51.034;13.642;2024-01-16T22:40:04;3.53;;;3.20;;
7247;SDS011;3665;51.034;13.642;2024-01-16T22:45:53;7.43;;;4.03;;
7247;SDS011;3665;51.034;13.642;2024-01-16T22:57:38;4.87;;;3.00;;
7247;SDS011;3665;51.034;13.642;2024-01-16T23:09:06;4.50;;;3.17;;
7247;SDS011;3665;51.034;13.642;2024-01-16T23:14:31;3.90;;;3.07;;
7247;SDS011;3665;51.034;13.642;2024-01-16T23:20:00;3.60;;;3.30;;
7247;SDS011;3665;51.034;13.642;2024-01-16T23:26:13;3.50;;;2.53;;
7247;SDS011;3665;51.034;13.642;2024-01-16T23:31:34;4.90;;;3.57;;
7247;SDS011;3665;51.034;13.642;2024-01-16T23:37:23;3.17;;;2.87;;
7247;SDS011;3665;51.034;13.642;2024-01-16T23:42:46;4.20;;;3.37;;
7247;SDS011;3665;51.034;13.642;2024-01-16T23:48:16;3.13;;;2.90;;
7247;SDS011;3665;51.034;13.642;2024-01-16T23:53:34;3.97;;;3.40;;
7247;SDS011;3665;51.034;13.642;2024-01-16T23:59:14;5.87;;;3.00;;
